Time;durP1;ratioP1;P1;durP2;ratioP2;P2;SDS_P1;SDS_P2;PMS_P1;PMS_P2;Temp;Humidity;BMP_temperature;BMP_pressure;BME280_temperature;BME280_humidity;BME280_pressure;Samples;Min_cycle;Max_cycle;Signal;HPM_P1;HPM_P2
2021/05/24 07:00:57;;;;;;;1.20;1.08;;;20.00;61.20;;;;;;5108510;27;20968;-41
2021/05/24 07:03:22;;;;;;;1.35;1.10;;;20.50;60.90;;;;;;5089025;28;20056;-41
2021/05/24 07:05:48;;;;;;;1.10;1.00;;;20.60;60.70;;;;;;5087731;28;20027;-27
2021/05/24 07:08:13;;;;;;;2.70;1.17;;;20.70;60.30;;;;;;5086002;28;20052;-43
2021/05/24 07:10:39;;;;;;;4.95;1.10;;;20.70;59.50;;;;;;5077573;28;20519;-34
2021/05/24 07:13:04;;;;;;;1.20;0.90;;;20.70;59.80;;;;;;5076310;28;20048;-43
2021/05/24 07:15:30;;;;;;;3.92;1.27;;;20.70;59.80;;;;;;5076252;28;20067;-42
2021/05/24 07:17:56;;;;;;;2.13;0.98;;;20.80;59.00;;;;;;5076142;28;20036;-45
2021/05/24 07:20:21;;;;;;;2.30;1.10;;;20.80;58.70;;;;;;5077779;28;20056;-43
2021/05/24 07:22:47;;;;;;;3.03;1.17;;;20.90;58.40;;;;;;5084674;28;20028;-44
2021/05/24 07:25:13;;;;;;;1.65;1.05;;;20.90;58.80;;;;;;5085687;28;20119;-43
2021/05/24 07:27:39;;;;;;;3.88;1.17;;;21.00;58.80;;;;;;5087854;28;20629;-43
2021/05/24 07:30:05;;;;;;;6.72;1.00;;;20.90;59.20;;;;;;5088223;28;20040;-43
2021/05/24 07:32:30;;;;;;;1.75;1.00;;;20.90;58.90;;;;;;5083915;28;20036;-45
2021/05/24 07:34:56;;;;;;;1.98;0.98;;;20.80;58.60;;;;;;5084891;28;20043;-43
2021/05/24 07:37:21;;;;;;;6.60;1.00;;;20.90;58.80;;;;;;5067744;28;20036;-43
2021/05/24 07:39:47;;;;;;;2.53;1.20;;;20.80;59.30;;;;;;5077064;28;20082;-43
2021/05/24 07:42:12;;;;;;;1.70;0.93;;;20.90;58.40;;;;;;5077799;28;20143;-44
2021/05/24 07:44:38;;;;;;;2.00;1.00;;;20.90;58.60;;;;;;5075019;28;20930;-43
2021/05/24 07:47:04;;;;;;;1.90;1.13;;;20.90;57.90;;;;;;5076568;28;20023;-43
2021/05/24 07:49:29;;;;;;;2.88;0.90;;;21.00;57.80;;;;;;5074759;28;20135;-44
2021/05/24 07:51:55;;;;;;;1.77;0.90;;;21.00;58.60;;;;;;5065079;28;20028;-43
2021/05/24 07:54:21;;;;;;;8.43;0.70;;;21.10;58.40;;;;;;5073933;28;20028;-43
2021/05/24 07:56:46;;;;;;;2.72;1.02;;;21.00;58.50;;;;;;5081263;28;20061;-43
2021/05/24 07:59:12;;;;;;;1.92;0.95;;;21.00;58.00;;;;;;5085878;28;20079;-42
2021/05/24 08:01:38;;;;;;;2.10;0.90;;;21.10;58.20;;;;;;5061369;28;20033;-43
2021/05/24 08:04:04;;;;;;;1.98;0.90;;;21.20;58.60;;;;;;5069291;28;20834;-42
2021/05/24 08:06:30;;;;;;;2.22;1.10;;;21.30;57.30;;;;;;5073370;28;20081;-43
2021/05/24 08:08:55;;;;;;;4.20;1.17;;;21.30;57.60;;;;;;5075471;28;20065;-43
2021/05/24 08:11:21;;;;;;;2.15;0.75;;;21.30;57.40;;;;;;5070688;28;20020;-43
2021/05/24 08:13:47;;;;;;;2.25;1.05;;;21.40;56.90;;;;;;5071678;28;20039;-43
2021/05/24 08:16:13;;;;;;;2.28;0.90;;;21.40;57.00;;;;;;5070678;28;20039;-43
2021/05/24 08:18:40;;;;;;;5.68;0.80;;;21.50;57.10;;;;;;5070266;28;20071;-43
2021/05/24 08:21:06;;;;;;;1.45;0.75;;;21.40;57.70;;;;;;5071803;28;20058;-41
2021/05/24 08:23:32;;;;;;;1.98;1.00;;;21.40;57.30;;;;;;5073103;28;20450;-43
2021/05/24 08:25:57;;;;;;;0.95;0.70;;;21.50;57.10;;;;;;5073682;28;20035;-38
2021/05/24 08:28:23;;;;;;;1.30;0.88;;;21.60;57.10;;;;;;5073034;28;20056;-44
2021/05/24 08:30:48;;;;;;;1.45;1.00;;;21.70;56.80;;;;;;5068690;28;20557;-43
2021/05/24 08:33:14;;;;;;;1.67;0.93;;;21.60;57.30;;;;;;5068087;28;20036;-45
2021/05/24 08:35:39;;;;;;;3.13;0.90;;;21.60;57.30;;;;;;5071261;28;20040;-44
2021/05/24 08:38:05;;;;;;;1.40;0.80;;;21.70;56.80;;;;;;5070070;28;20043;-47
2021/05/24 08:40:31;;;;;;;2.40;1.10;;;21.80;57.10;;;;;;5068506;28;20787;-44
2021/05/24 08:42:58;;;;;;;2.35;0.75;;;21.90;56.70;;;;;;5067853;28;20048;-46
2021/05/24 08:45:25;;;;;;;2.53;0.85;;;22.00;56.50;;;;;;5071051;28;20035;-44
2021/05/24 08:47:50;;;;;;;2.15;0.90;;;21.90;56.30;;;;;;5054208;28;20025;-47
2021/05/24 08:50:16;;;;;;;0.70;0.70;;;22.10;56.30;;;;;;5053919;28;20958;-44
2021/05/24 08:52:42;;;;;;;1.73;0.95;;;22.10;57.10;;;;;;5070384;28;20134;-45
2021/05/24 08:55:09;;;;;;;0.82;0.65;;;22.20;56.20;;;;;;5065476;28;20040;-47
2021/05/24 08:57:38;;;;;;;1.95;0.85;;;22.30;55.90;;;;;;5067878;28;20034;-44
2021/05/24 09:00:06;;;;;;;0.80;0.70;;;22.40;55.70;;;;;;5067791;28;20063;-44
2021/05/24 09:02:31;;;;;;;2.17;0.90;;;22.40;55.60;;;;;;5066435;28;20028;-44
2021/05/24 09:04:57;;;;;;;0.77;0.68;;;22.40;55.60;;;;;;5066150;28;20032;-46
2021/05/24 09:07:24;;;;;;;1.40;0.80;;;22.40;55.90;;;;;;5040671;28;20051;-46
2021/05/24 09:10:00;;;;;;;2.20;0.60;;;22.50;55.70;;;;;;5057963;28;20057;-48
2021/05/24 09:12:31;;;;;;;0.50;0.50;;;22.50;55.50;;;;;;5069330;28;20035;-44
2021/05/24 09:15:02;;;;;;;1.75;0.73;;;22.50;55.40;;;;;;5067984;28;20040;-43
2021/05/24 09:17:40;;;;;;;0.55;0.55;;;22.50;55.20;;;;;;5056538;28;20055;-45
2021/05/24 09:20:14;;;;;;;0.90;0.70;;;22.50;55.20;;;;;;5066938;28;20119;-44
2021/05/24 09:22:39;;;;;;;1.20;0.80;;;22.50;55.10;;;;;;5065423;28;20032;-46
2021/05/24 09:25:05;;;;;;;0.63;0.63;;;22.50;55.10;;;;;;5068647;28;20056;-44
2021/05/24 09:27:35;;;;;;;2.63;0.68;;;22.50;55.20;;;;;;5068424;28;20032;-45
2021/05/24 09:30:01;;;;;;;1.67;0.93;;;22.50;55.40;;;;;;5065744;28;20067;-44
2021/05/24 09:32:29;;;;;;;0.60;0.60;;;22.60;55.30;;;;;;5067326;28;20119;-43
2021/05/24 09:34:55;;;;;;;0.68;0.60;;;22.50;55.90;;;;;;5068419;28;20089;-40
2021/05/24 09:37:37;;;;;;;0.95;0.80;;;22.60;55.20;;;;;;5066589;28;20094;-45
2021/05/24 09:40:22;;;;;;;1.73;0.68;;;22.60;55.10;;;;;;5057565;28;20048;-44
2021/05/24 09:42:48;;;;;;;2.30;0.65;;;22.60;55.10;;;;;;5055307;28;20039;-45
2021/05/24 09:45:17;;;;;;;0.98;0.70;;;22.60;55.10;;;;;;5067110;28;20032;-46
2021/05/24 09:47:43;;;;;;;2.85;0.60;;;22.60;54.90;;;;;;5069251;28;20032;-44
2021/05/24 09:50:15;;;;;;;0.80;0.50;;;22.70;54.80;;;;;;5056647;28;20043;-43
2021/05/24 09:52:42;;;;;;;2.05;0.63;;;22.70;54.70;;;;;;5065579;28;20074;-46
2021/05/24 09:55:18;;;;;;;1.23;0.70;;;22.70;54.60;;;;;;5067893;28;20032;-45
2021/05/24 09:58:09;;;;;;;1.35;0.65;;;22.70;54.90;;;;;;5066559;28;20553;-44
2021/05/24 10:00:47;;;;;;;0.98;0.50;;;22.70;54.70;;;;;;5065156;28;20143;-51
2021/05/24 10:03:14;;;;;;;3.95;0.75;;;22.70;54.50;;;;;;5055241;28;20448;-46
2021/05/24 10:05:51;;;;;;;1.20;0.50;;;22.70;54.90;;;;;;5066181;28;20044;-46
2021/05/24 10:08:17;;;;;;;0.73;0.40;;;22.80;54.70;;;;;;5065867;28;20135;-47
2021/05/24 10:10:43;;;;;;;1.17;0.70;;;22.80;54.30;;;;;;5065580;28;20028;-46
2021/05/24 10:13:08;;;;;;;1.30;0.70;;;22.80;54.40;;;;;;5065241;28;20050;-46
2021/05/24 10:15:42;;;;;;;0.70;0.40;;;22.90;54.20;;;;;;5065710;28;20103;-44
2021/05/24 10:18:08;;;;;;;0.70;0.50;;;23.00;54.10;;;;;;5069001;28;20111;-46
2021/05/24 10:20:34;;;;;;;0.77;0.70;;;23.00;54.10;;;;;;5065346;28;20044;-45
2021/05/24 10:23:00;;;;;;;2.42;0.77;;;23.00;54.00;;;;;;5065382;28;20570;-48
2021/05/24 10:25:25;;;;;;;0.57;0.50;;;22.90;53.90;;;;;;5065617;28;20033;-45
2021/05/24 10:27:51;;;;;;;0.85;0.50;;;22.90;53.80;;;;;;5066097;28;20086;-44
2021/05/24 10:30:17;;;;;;;1.23;0.60;;;22.90;53.70;;;;;;5055768;28;20024;-45
2021/05/24 10:32:59;;;;;;;0.77;0.57;;;22.90;53.80;;;;;;5054078;28;20090;-45
2021/05/24 10:35:37;;;;;;;2.15;0.70;;;22.90;53.70;;;;;;5068783;28;20040;-45
2021/05/24 10:38:30;;;;;;;1.50;0.70;;;23.00;53.70;;;;;;5067109;28;20036;-46
2021/05/24 10:41:09;;;;;;;0.90;0.63;;;23.00;53.60;;;;;;5060086;28;20044;-44
2021/05/24 10:43:41;;;;;;;1.00;0.50;;;23.00;53.60;;;;;;5065955;28;20032;-43
2021/05/24 10:46:37;;;;;;;0.88;0.50;;;23.00;53.50;;;;;;5054098;28;20032;-45
2021/05/24 10:49:05;;;;;;;0.73;0.60;;;23.00;53.30;;;;;;5056250;28;20044;-44
2021/05/24 10:51:59;;;;;;;1.95;0.63;;;23.00;53.30;;;;;;5064144;28;20123;-37
2021/05/24 10:54:40;;;;;;;1.45;0.63;;;23.00;53.20;;;;;;5061855;28;20108;-38
2021/05/24 10:57:09;;;;;;;1.10;0.60;;;23.10;53.30;;;;;;5055337;28;20164;-38
2021/05/24 10:59:47;;;;;;;2.80;0.98;;;23.00;53.20;;;;;;5055499;28;20056;-36
2021/05/24 11:02:26;;;;;;;0.80;0.70;;;23.00;53.10;;;;;;5065106;28;20036;-37
2021/05/24 11:04:56;;;;;;;0.88;0.52;;;23.00;53.10;;;;;;5064750;28;20082;-38
2021/05/24 11:07:29;;;;;;;0.55;0.52;;;23.00;53.00;;;;;;5065178;28;20047;-39
2021/05/24 11:10:48;;;;;;;0.80;0.63;;;23.10;53.10;;;;;;5065211;28;20476;-37
2021/05/24 11:13:20;;;;;;;1.20;0.60;;;23.10;53.00;;;;;;4970488;28;20031;-38
2021/05/24 11:15:45;;;;;;;0.80;0.60;;;23.10;53.10;;;;;;4972400;28;20038;-38
2021/05/24 11:18:13;;;;;;;1.75;0.70;;;23.10;53.20;;;;;;4973331;28;20030;-43
2021/05/24 11:20:49;;;;;;;1.25;0.57;;;23.10;53.10;;;;;;4972936;28;21048;-36
2021/05/24 11:23:26;;;;;;;0.47;0.40;;;23.10;53.10;;;;;;4971214;28;20053;-38
2021/05/24 11:25:58;;;;;;;1.00;0.63;;;23.00;53.30;;;;;;4971633;28;20121;-39
2021/05/24 11:28:37;;;;;;;1.30;0.47;;;23.10;53.30;;;;;;4972216;28;20050;-37
2021/05/24 11:31:22;;;;;;;1.05;0.60;;;23.00;53.70;;;;;;4972720;28;20145;-38
2021/05/24 11:33:48;;;;;;;1.48;0.63;;;22.90;54.00;;;;;;4970595;28;20073;-39
2021/05/24 11:36:20;;;;;;;1.45;0.65;;;22.90;53.40;;;;;;4975727;28;20783;-40
2021/05/24 11:39:16;;;;;;;0.88;0.60;;;23.00;53.30;;;;;;4696656;28;10000837;-38
2021/05/24 11:42:04;;;;;;;0.68;0.57;;;23.00;53.00;;;;;;4977037;28;20263;-36
2021/05/24 11:44:51;;;;;;;1.30;0.55;;;22.90;53.80;;;;;;4975993;28;20097;-35
2021/05/24 11:47:19;;;;;;;0.55;0.43;;;22.90;53.20;;;;;;5036172;28;20040;-35
2021/05/24 11:49:46;;;;;;;2.35;0.60;;;22.90;53.30;;;;;;5060438;28;20110;-36
2021/05/24 11:52:23;;;;;;;2.50;0.63;;;23.00;53.20;;;;;;5070895;28;20036;-41
2021/05/24 11:54:50;;;;;;;1.15;0.45;;;22.90;53.70;;;;;;5071182;28;20501;-39
2021/05/24 11:57:18;;;;;;;1.23;0.57;;;22.90;53.30;;;;;;5071868;28;20116;-37
2021/05/24 11:59:43;;;;;;;0.50;0.47;;;22.90;53.10;;;;;;5069210;28;20061;-41
2021/05/24 12:02:09;;;;;;;1.23;0.40;;;22.90;53.60;;;;;;5070284;28;20452;-41
2021/05/24 12:04:36;;;;;;;0.95;0.70;;;22.80;53.50;;;;;;5059224;28;20471;-38
2021/05/24 12:07:09;;;;;;;2.35;0.70;;;22.90;53.30;;;;;;5074035;28;20071;-41
2021/05/24 12:09:52;;;;;;;2.00;0.70;;;22.70;53.90;;;;;;5072278;28;20051;-44
2021/05/24 12:12:31;;;;;;;0.60;0.35;;;22.80;53.50;;;;;;5071758;28;20113;-47
2021/05/24 12:15:02;;;;;;;0.82;0.60;;;22.80;53.70;;;;;;5069947;28;20049;-39
2021/05/24 12:17:29;;;;;;;2.25;0.40;;;22.70;54.10;;;;;;5069245;28;20505;-38
2021/05/24 12:19:55;;;;;;;2.08;0.57;;;22.80;53.70;;;;;;5069761;28;20538;-36
2021/05/24 12:22:22;;;;;;;1.10;0.40;;;22.80;53.80;;;;;;5073466;28;20042;-42
2021/05/24 12:24:48;;;;;;;0.55;0.50;;;22.70;54.10;;;;;;5071526;28;20035;-39
2021/05/24 12:27:15;;;;;;;0.70;0.50;;;22.50;54.30;;;;;;5072269;28;20885;-39
2021/05/24 12:30:06;;;;;;;0.52;0.50;;;22.50;54.60;;;;;;5067536;28;20125;-40
2021/05/24 12:32:48;;;;;;;1.10;0.60;;;22.60;54.30;;;;;;5067349;28;20039;-40
2021/05/24 12:35:40;;;;;;;1.52;0.40;;;22.60;54.20;;;;;;5069502;28;20107;-41
2021/05/24 12:38:16;;;;;;;3.03;0.50;;;22.50;55.00;;;;;;5061869;28;20032;-36
2021/05/24 12:40:41;;;;;;;1.60;0.43;;;22.60;55.10;;;;;;5087308;28;20048;-37
2021/05/24 12:43:07;;;;;;;1.30;0.70;;;22.50;55.00;;;;;;5070985;28;20031;-37
2021/05/24 12:45:32;;;;;;;0.90;0.30;;;22.60;54.50;;;;;;5089488;28;20505;-38
2021/05/24 12:47:59;;;;;;;1.85;0.30;;;22.70;54.60;;;;;;5087864;28;20027;-39
2021/05/24 12:50:25;;;;;;;1.10;0.50;;;22.80;54.30;;;;;;5071465;28;20107;-37
2021/05/24 12:52:51;;;;;;;0.60;0.35;;;22.90;54.00;;;;;;5054361;28;20510;-37
2021/05/24 12:55:18;;;;;;;2.33;0.60;;;22.90;53.60;;;;;;5087223;28;20073;-40
2021/05/24 12:57:45;;;;;;;1.13;0.50;;;22.90;53.70;;;;;;5069164;28;20111;-37
2021/05/24 13:00:11;;;;;;;0.60;0.50;;;22.80;54.00;;;;;;5090734;28;20521;-38
2021/05/24 13:02:37;;;;;;;1.67;0.45;;;22.80;53.80;;;;;;5087103;28;20038;-37
2021/05/24 13:05:15;;;;;;;1.00;0.50;;;22.70;54.00;;;;;;5088712;28;20024;-35
2021/05/24 13:08:00;;;;;;;1.05;0.40;;;22.70;54.70;;;;;;5087619;28;20028;-42
2021/05/24 13:10:29;;;;;;;;;;;22.60;54.30;;;;;;5088242;28;20020;-43
2021/05/24 13:12:59;;;;;;;0.50;0.40;;;22.60;54.30;;;;;;5084617;28;19966;-34
2021/05/24 13:15:37;;;;;;;1.30;0.40;;;22.50;54.50;;;;;;5090016;28;20107;-38
2021/05/24 13:18:07;;;;;;;0.63;0.50;;;22.50;54.40;;;;;;5090503;28;20494;-41
2021/05/24 13:21:04;;;;;;;1.13;0.60;;;22.50;54.60;;;;;;5085387;28;20044;-36
2021/05/24 13:28:45;;;;;;;2.50;0.47;;;22.60;53.90;;;;;;5082965;28;20035;-37
2021/05/24 13:31:10;;;;;;;0.50;0.40;;;22.70;53.90;;;;;;5086023;28;20052;-40
2021/05/24 13:33:37;;;;;;;0.57;0.30;;;22.60;54.10;;;;;;5067170;28;20082;-35
2021/05/24 13:36:13;;;;;;;0.50;0.40;;;22.60;53.80;;;;;;5087947;28;20030;-37
2021/05/24 13:39:00;;;;;;;1.27;0.40;;;22.60;53.70;;;;;;5076036;28;20108;-38
2021/05/24 13:41:27;;;;;;;0.90;0.43;;;22.70;53.80;;;;;;5073398;28;20044;-37
2021/05/24 13:43:52;;;;;;;0.55;0.40;;;22.70;53.60;;;;;;5084187;28;20028;-35
2021/05/24 13:46:20;;;;;;;1.08;0.30;;;22.70;53.70;;;;;;5087176;28;20093;-36
2021/05/24 13:48:46;;;;;;;0.77;0.50;;;22.70;53.60;;;;;;5087881;28;20035;-39
2021/05/24 13:51:11;;;;;;;0.85;0.50;;;22.70;53.60;;;;;;5089882;28;20568;-37
2021/05/24 13:53:37;;;;;;;0.40;0.40;;;22.80;53.30;;;;;;5087203;28;20040;-38
2021/05/24 13:56:03;;;;;;;0.70;0.50;;;22.80;53.30;;;;;;5085953;28;20027;-37
2021/05/24 13:58:29;;;;;;;0.95;0.40;;;22.90;53.20;;;;;;5087098;28;20105;-36
2021/05/24 14:00:54;;;;;;;0.73;0.30;;;22.90;53.10;;;;;;5087133;28;20115;-38
2021/05/24 14:03:20;;;;;;;0.32;0.32;;;22.90;53.30;;;;;;5087722;28;20464;-37
2021/05/24 14:05:46;;;;;;;0.73;0.40;;;22.80;53.50;;;;;;5085785;28;20020;-42
2021/05/24 14:08:11;;;;;;;0.60;0.43;;;22.80;53.40;;;;;;5084722;28;20744;-38
2021/05/24 14:10:37;;;;;;;1.45;0.32;;;22.90;53.90;;;;;;5087914;28;20028;-36
2021/05/24 14:13:03;;;;;;;0.57;0.30;;;22.80;53.60;;;;;;5070633;28;20038;-37
2021/05/24 14:15:29;;;;;;;0.93;0.38;;;22.80;53.50;;;;;;5085178;28;20494;-36
2021/05/24 14:17:56;;;;;;;1.00;0.40;;;22.80;53.70;;;;;;5089410;28;20077;-37
2021/05/24 14:20:22;;;;;;;0.77;0.50;;;22.70;54.60;;;;;;5088528;28;20093;-43
2021/05/24 14:22:48;;;;;;;1.08;0.40;;;22.60;54.40;;;;;;5087674;28;20040;-36
2021/05/24 14:25:13;;;;;;;2.33;0.40;;;22.70;53.70;;;;;;5087442;28;20032;-37
2021/05/24 14:27:39;;;;;;;1.67;0.60;;;22.60;54.90;;;;;;5084833;28;20025;-35
2021/05/24 14:30:06;;;;;;;0.50;0.40;;;22.50;54.50;;;;;;5091274;28;20063;-37
2021/05/24 14:32:31;;;;;;;13.82;0.50;;;22.60;54.10;;;;;;5085400;28;20051;-38
2021/05/24 14:34:57;;;;;;;1.45;0.50;;;22.70;54.10;;;;;;5088511;28;20505;-38
2021/05/24 14:37:23;;;;;;;1.38;0.38;;;22.70;54.10;;;;;;5088728;28;20085;-41
2021/05/24 14:39:48;;;;;;;0.88;0.50;;;22.80;53.50;;;;;;5086549;28;20050;-37
2021/05/24 14:42:14;;;;;;;1.52;0.40;;;22.90;53.10;;;;;;5090979;28;20020;-36
2021/05/24 14:44:40;;;;;;;0.77;0.40;;;22.90;53.30;;;;;;5088932;28;20525;-40
2021/05/24 14:47:05;;;;;;;0.80;0.43;;;22.80;53.60;;;;;;5089607;28;20394;-40
2021/05/24 14:49:33;;;;;;;0.70;0.45;;;22.60;53.80;;;;;;5087428;28;20046;-41
2021/05/24 14:51:59;;;;;;;3.35;0.60;;;22.70;53.90;;;;;;5088356;28;20485;-38
2021/05/24 14:54:25;;;;;;;0.95;0.40;;;22.70;53.60;;;;;;5089175;28;20047;-36
2021/05/24 14:56:50;;;;;;;0.50;0.30;;;22.80;53.40;;;;;;5090203;28;20478;-36
2021/05/24 14:59:16;;;;;;;1.33;0.60;;;22.90;53.20;;;;;;5089854;28;20075;-36
2021/05/24 15:01:42;;;;;;;0.70;0.30;;;22.90;53.20;;;;;;5084723;28;20024;-39
2021/05/24 15:04:07;;;;;;;3.20;0.73;;;22.70;53.40;;;;;;5086679;28;20028;-37
2021/05/24 15:06:33;;;;;;;1.45;0.40;;;22.80;53.40;;;;;;5067951;28;20027;-38
2021/05/24 15:08:58;;;;;;;3.25;0.43;;;22.90;53.10;;;;;;5087999;28;20020;-36
2021/05/24 15:11:24;;;;;;;1.02;0.50;;;22.80;53.10;;;;;;5088735;28;20031;-37
2021/05/24 15:13:50;;;;;;;0.73;0.20;;;22.80;53.20;;;;;;5090759;28;20077;-36
2021/05/24 15:16:15;;;;;;;1.67;0.50;;;22.90;52.60;;;;;;5091703;28;20520;-35
2021/05/24 15:18:41;;;;;;;0.43;0.30;;;23.00;52.60;;;;;;5088080;28;20077;-37
2021/05/24 15:21:07;;;;;;;0.30;0.30;;;23.10;52.20;;;;;;5093020;28;20089;-38
2021/05/24 15:23:32;;;;;;;1.08;0.45;;;23.00;52.30;;;;;;5090734;28;20020;-39
2021/05/24 15:25:58;;;;;;;0.63;0.45;;;23.10;51.90;;;;;;5091423;28;20690;-37
2021/05/24 15:28:25;;;;;;;0.82;0.32;;;23.10;52.00;;;;;;5090510;28;20618;-36
2021/05/24 15:30:50;;;;;;;0.60;0.55;;;23.00;52.30;;;;;;5090238;28;20036;-37
2021/05/24 15:33:16;;;;;;;0.60;0.30;;;23.00;52.10;;;;;;5093706;28;20028;-36
2021/05/24 15:35:42;;;;;;;0.93;0.45;;;23.10;52.30;;;;;;5092868;28;20036;-37
2021/05/24 15:38:12;;;;;;;0.90;0.47;;;22.90;52.80;;;;;;5093512;28;20024;-36
2021/05/24 15:40:39;;;;;;;0.73;0.50;;;22.70;53.00;;;;;;5092509;28;20040;-38
2021/05/24 15:43:05;;;;;;;1.95;0.30;;;22.70;53.50;;;;;;5089333;28;20085;-36
2021/05/24 15:45:30;;;;;;;0.95;0.40;;;22.60;54.10;;;;;;5093457;28;20032;-37
2021/05/24 15:47:56;;;;;;;0.57;0.38;;;22.70;53.00;;;;;;5090595;28;20024;-37
2021/05/24 15:50:22;;;;;;;0.30;0.30;;;22.60;53.40;;;;;;5090408;28;20031;-37
2021/05/24 15:52:47;;;;;;;0.57;0.40;;;22.70;53.10;;;;;;5088296;28;20039;-37
2021/05/24 15:55:13;;;;;;;0.50;0.30;;;22.70;53.30;;;;;;5086024;28;20027;-37
2021/05/24 15:57:39;;;;;;;4.32;0.30;;;22.60;54.20;;;;;;5089775;28;20465;-37
2021/05/24 16:00:06;;;;;;;0.60;0.30;;;22.60;53.30;;;;;;5087595;28;20071;-37
2021/05/24 16:02:32;;;;;;;0.82;0.45;;;22.70;53.00;;;;;;5089153;28;20035;-36
2021/05/24 16:04:57;;;;;;;0.60;0.30;;;22.70;53.00;;;;;;5088027;28;20028;-37
2021/05/24 16:07:23;;;;;;;0.55;0.30;;;22.80;52.30;;;;;;5089023;28;20098;-41
2021/05/24 16:09:49;;;;;;;2.92;0.60;;;22.60;53.30;;;;;;5090770;28;20051;-36
2021/05/24 16:12:14;;;;;;;0.50;0.50;;;22.80;52.50;;;;;;5079456;28;20489;-38
2021/05/24 16:14:40;;;;;;;1.65;0.32;;;22.90;52.30;;;;;;5089819;28;20157;-38
2021/05/24 16:17:05;;;;;;;0.52;0.40;;;22.80;52.60;;;;;;4736456;28;10000583;-42
2021/05/24 16:19:31;;;;;;;0.40;0.40;;;22.90;52.60;;;;;;5089772;28;20101;-37
2021/05/24 16:21:58;;;;;;;2.13;0.70;;;22.90;52.70;;;;;;5087490;28;20077;-35
2021/05/24 16:24:41;;;;;;;2.38;0.47;;;23.00;52.70;;;;;;5087704;28;20032;-37
2021/05/24 16:27:06;;;;;;;0.85;0.50;;;22.80;54.00;;;;;;5089351;28;20031;-39
2021/05/24 16:29:32;;;;;;;1.27;0.30;;;22.80;53.60;;;;;;5088814;28;20410;-37
2021/05/24 16:31:59;;;;;;;0.90;0.50;;;22.60;53.80;;;;;;5092592;28;20036;-37
2021/05/24 16:34:24;;;;;;;0.88;0.40;;;22.70;53.20;;;;;;5094030;28;20484;-37
2021/05/24 16:36:51;;;;;;;0.40;0.30;;;22.70;53.40;;;;;;5074135;28;20075;-36
2021/05/24 16:39:16;;;;;;;0.68;0.50;;;22.80;53.50;;;;;;5095180;28;20515;-43
2021/05/24 16:41:42;;;;;;;1.17;0.30;;;22.80;53.50;;;;;;5092484;28;20035;-36
2021/05/24 16:44:08;;;;;;;0.52;0.50;;;22.80;53.40;;;;;;5092782;28;20032;-36
2021/05/24 16:46:34;;;;;;;1.25;0.55;;;22.90;53.10;;;;;;5090534;28;20508;-36
2021/05/24 16:49:00;;;;;;;0.50;0.30;;;22.90;53.10;;;;;;5089785;28;20016;-42
2021/05/24 16:51:25;;;;;;;0.70;0.40;;;23.00;52.90;;;;;;5095865;28;20037;-37
2021/05/24 16:53:51;;;;;;;0.80;0.50;;;22.90;53.20;;;;;;5090035;28;20059;-37
2021/05/24 16:56:16;;;;;;;2.63;0.47;;;22.80;53.60;;;;;;5096262;28;20024;-38
2021/05/24 16:58:42;;;;;;;0.90;0.50;;;22.80;53.50;;;;;;5092506;28;20067;-38
2021/05/24 17:01:07;;;;;;;0.82;0.40;;;22.90;53.00;;;;;;5089729;28;20032;-37
2021/05/24 17:03:33;;;;;;;0.45;0.30;;;23.00;53.00;;;;;;5094347;28;20606;-39
2021/05/24 17:05:59;;;;;;;0.25;0.25;;;22.90;52.90;;;;;;5095885;28;20031;-37
2021/05/24 17:08:24;;;;;;;0.65;0.40;;;23.00;52.80;;;;;;5089130;28;20023;-38
2021/05/24 17:10:53;;;;;;;0.50;0.32;;;23.00;52.80;;;;;;5073672;28;20573;-39
2021/05/24 17:13:22;;;;;;;0.82;0.40;;;23.00;52.60;;;;;;5086926;28;20117;-37
2021/05/24 17:15:51;;;;;;;2.67;0.60;;;23.00;52.60;;;;;;5071713;28;20029;-40
2021/05/24 17:18:17;;;;;;;0.60;0.30;;;23.00;52.70;;;;;;5089675;28;20541;-36
2021/05/24 17:20:43;;;;;;;0.47;0.40;;;22.90;52.90;;;;;;5087601;28;20068;-37
2021/05/24 17:23:09;;;;;;;0.77;0.30;;;22.90;52.90;;;;;;5086686;28;20048;-37
2021/05/24 17:25:35;;;;;;;1.42;0.75;;;22.80;53.80;;;;;;5086152;28;20032;-36
2021/05/24 17:28:02;;;;;;;0.55;0.43;;;22.70;53.20;;;;;;5083954;28;20075;-37
2021/05/24 17:30:31;;;;;;;1.75;0.98;;;22.70;53.40;;;;;;5089909;28;20284;-37
2021/05/24 17:32:57;;;;;;;0.80;0.77;;;22.60;53.70;;;;;;5086479;28;20028;-36
2021/05/24 17:35:23;;;;;;;1.25;0.90;;;22.60;53.80;;;;;;5085552;28;20047;-37
2021/05/24 17:37:49;;;;;;;3.95;1.17;;;22.60;54.60;;;;;;5086919;28;20035;-37
2021/05/24 17:40:16;;;;;;;2.83;1.27;;;22.70;53.70;;;;;;5085707;28;20032;-37
2021/05/24 17:42:42;;;;;;;2.42;1.48;;;22.80;53.80;;;;;;5088089;28;20521;-38
2021/05/24 17:45:09;;;;;;;2.03;1.30;;;22.80;54.80;;;;;;5090521;28;20111;-38
2021/05/24 17:47:35;;;;;;;2.08;1.13;;;22.70;53.70;;;;;;5089712;28;20039;-37
2021/05/24 17:50:09;;;;;;;2.25;1.38;;;22.80;54.20;;;;;;5090018;28;20031;-37
2021/05/24 17:52:40;;;;;;;5.38;1.42;;;22.70;54.40;;;;;;5089384;28;20036;-37
2021/05/24 17:55:07;;;;;;;1.50;0.95;;;22.80;54.00;;;;;;5087531;28;20440;-37
2021/05/24 17:57:33;;;;;;;3.33;1.20;;;22.60;54.30;;;;;;5090595;28;20036;-37
2021/05/24 17:59:59;;;;;;;1.65;1.10;;;22.50;54.30;;;;;;5091808;28;20417;-37
2021/05/24 18:02:25;;;;;;;2.55;1.50;;;22.60;54.30;;;;;;5089345;28;20028;-42
2021/05/24 18:04:51;;;;;;;2.03;1.25;;;22.50;54.90;;;;;;5069172;28;20050;-46
2021/05/24 18:07:16;;;;;;;2.15;1.30;;;22.60;54.20;;;;;;5089848;28;20031;-37
2021/05/24 18:09:42;;;;;;;25.58;2.03;;;22.60;55.30;;;;;;5087567;28;20043;-37
2021/05/24 18:12:08;;;;;;;4.15;1.15;;;22.70;54.00;;;;;;5073403;28;20024;-34
2021/05/24 18:14:34;;;;;;;3.70;1.33;;;22.60;55.00;;;;;;5092237;28;20074;-37
2021/05/24 18:16:59;;;;;;;2.95;1.13;;;22.60;55.50;;;;;;5090144;28;21583;-36
2021/05/24 18:19:25;;;;;;;6.27;1.13;;;22.70;55.40;;;;;;4729509;28;9999841;-38
2021/05/24 18:21:50;;;;;;;2.65;1.50;;;22.80;54.90;;;;;;5066967;28;20439;-38
2021/05/24 18:24:16;;;;;;;3.40;1.30;;;22.70;55.80;;;;;;5091116;28;20035;-36
2021/05/24 18:26:41;;;;;;;15.85;1.25;;;22.70;54.80;;;;;;5082904;28;20398;-39
2021/05/24 18:29:07;;;;;;;1.98;0.90;;;22.80;54.90;;;;;;5084026;28;20035;-39
2021/05/24 18:31:36;;;;;;;4.78;1.20;;;22.80;54.70;;;;;;5086255;28;20027;-38
2021/05/24 18:34:01;;;;;;;2.65;1.20;;;22.70;55.40;;;;;;5084219;28;20024;-40
2021/05/24 18:36:27;;;;;;;6.05;1.38;;;22.60;55.80;;;;;;5085340;28;20090;-37
2021/05/24 18:38:53;;;;;;;2.35;1.00;;;22.70;55.30;;;;;;5082158;28;20135;-39
2021/05/24 18:41:18;;;;;;;1.27;0.90;;;22.70;55.20;;;;;;5063958;28;20046;-38
2021/05/24 18:43:45;;;;;;;6.78;1.40;;;22.60;55.50;;;;;;5074696;28;20031;-38
2021/05/24 18:46:10;;;;;;;2.65;1.13;;;22.50;56.00;;;;;;5082936;28;20025;-39
2021/05/24 18:48:39;;;;;;;3.55;0.95;;;22.60;55.80;;;;;;5075815;28;20058;-37
2021/05/24 18:51:07;;;;;;;3.15;0.90;;;22.70;55.20;;;;;;5084420;28;20031;-36
2021/05/24 18:53:33;;;;;;;1.92;0.90;;;22.80;55.00;;;;;;5078429;28;20063;-38
2021/05/24 18:55:59;;;;;;;7.18;1.10;;;22.80;54.80;;;;;;5080821;28;20525;-38
2021/05/24 18:58:25;;;;;;;1.63;1.05;;;22.60;55.70;;;;;;5084494;28;20089;-39
2021/05/24 19:00:51;;;;;;;5.47;1.25;;;22.60;55.50;;;;;;5066309;28;20080;-37
2021/05/24 19:08:29;;;;;;;;;;;22.60;55.20;;;;;;5068640;28;20039;-37
2021/05/24 19:10:55;;;;;;;1.55;0.80;;;22.60;54.90;;;;;;5083968;28;19910;-38
2021/05/24 19:13:21;;;;;;;1.42;0.85;;;22.60;55.30;;;;;;5083975;28;20027;-38
2021/05/24 19:15:47;;;;;;;2.60;0.85;;;22.50;55.40;;;;;;5082371;28;20051;-38
2021/05/24 19:18:17;;;;;;;1.70;0.73;;;22.70;55.40;;;;;;5088722;28;20025;-39
2021/05/24 19:20:43;;;;;;;2.15;0.93;;;22.80;54.90;;;;;;5080598;28;20048;-37
2021/05/24 19:23:08;;;;;;;1.30;1.00;;;22.90;54.50;;;;;;5085562;28;20031;-37
2021/05/24 19:25:34;;;;;;;2.03;0.93;;;22.70;55.30;;;;;;5084088;28;20511;-37
2021/05/24 19:28:00;;;;;;;1.25;0.82;;;22.60;55.10;;;;;;5083391;28;20028;-37
2021/05/24 19:30:25;;;;;;;2.50;0.88;;;22.60;54.70;;;;;;5087480;28;20647;-38
2021/05/24 19:32:54;;;;;;;2.50;0.93;;;22.60;55.10;;;;;;5081040;28;20028;-38
2021/05/24 19:35:24;;;;;;;1.33;1.10;;;22.50;55.20;;;;;;5078944;28;20032;-39
2021/05/24 19:37:50;;;;;;;0.98;0.80;;;22.40;55.40;;;;;;5079237;28;20486;-38
2021/05/24 19:40:17;;;;;;;3.13;1.10;;;22.40;55.20;;;;;;5078031;28;20044;-35
2021/05/24 19:42:42;;;;;;;1.40;0.82;;;22.30;55.40;;;;;;5079065;28;20028;-37
2021/05/24 19:45:09;;;;;;;1.35;1.05;;;22.30;55.30;;;;;;5076042;28;20047;-38
2021/05/24 20:23:35;;;;;;;;;;;22.50;54.80;;;;;;5083841;28;20409;-36
2021/05/24 20:25:06;;;;;;;2.85;1.10;;;22.60;55.00;;;;;;5085278;28;20093;-36
2021/05/24 20:27:32;;;;;;;1.00;0.75;;;22.60;55.20;;;;;;5083054;28;20159;-37
2021/05/24 20:29:57;;;;;;;1.55;0.90;;;22.50;54.80;;;;;;5092065;28;20115;-37
2021/05/24 20:32:23;;;;;;;0.70;0.70;;;22.60;54.50;;;;;;5087671;28;20027;-38
2021/05/24 20:34:49;;;;;;;1.40;0.93;;;22.50;54.80;;;;;;5087838;28;20024;-37
2021/05/24 20:37:14;;;;;;;3.70;0.70;;;22.50;54.80;;;;;;5083109;28;20021;-36
2021/05/24 20:39:40;;;;;;;1.75;0.90;;;22.60;54.90;;;;;;5084854;28;20044;-37